sensor_id;sensor_type;location;lat;lon;timestamp;P1;durP1;ratioP1;P2;durP2;ratioP2
42832;SDS011;64089;51.478;5.692;2023-02-11T00:01:09;33.63;;;10.00;;
42832;SDS011;64089;51.478;5.692;2023-02-11T00:03:36;24.13;;;9.38;;
42832;SDS011;64089;51.478;5.692;2023-02-11T00:06:06;38.10;;;9.60;;
42832;SDS011;64089;51.478;5.692;2023-02-11T00:08:35;17.23;;;8.40;;
42832;SDS011;64089;51.478;5.692;2023-02-11T00:11:00;22.35;;;9.30;;
42832;SDS011;64089;51.478;5.692;2023-02-11T00:13:26;23.38;;;8.35;;
42832;SDS011;64089;51.478;5.692;2023-02-11T00:15:52;26.88;;;9.50;;
42832;SDS011;64089;51.478;5.692;2023-02-11T00:18:19;23.58;;;9.68;;
42832;SDS011;64089;51.478;5.692;2023-02-11T00:20:44;21.75;;;10.05;;
42832;SDS011;64089;51.478;5.692;2023-02-11T00:23:10;17.75;;;9.32;;
42832;SDS011;64089;51.478;5.692;2023-02-11T00:25:39;17.33;;;7.88;;
42832;SDS011;64089;51.478;5.692;2023-02-11T00:28:06;26.08;;;9.00;;
42832;SDS011;64089;51.478;5.692;2023-02-11T00:30:32;30.27;;;9.60;;
42832;SDS011;64089;51.478;5.692;2023-02-11T00:32:58;29.98;;;9.48;;
42832;SDS011;64089;51.478;5.692;2023-02-11T00:35:24;20.52;;;7.78;;
42832;SDS011;64089;51.478;5.692;2023-02-11T00:37:51;22.27;;;7.80;;
42832;SDS011;64089;51.478;5.692;2023-02-11T00:40:17;23.52;;;8.43;;
42832;SDS011;64089;51.478;5.692;2023-02-11T00:42:43;20.08;;;9.05;;
42832;SDS011;64089;51.478;5.692;2023-02-11T00:45:09;23.88;;;9.02;;
42832;SDS011;64089;51.478;5.692;2023-02-11T00:47:35;17.35;;;7.88;;
42832;SDS011;64089;51.478;5.692;2023-02-11T00:50:01;16.48;;;7.55;;
42832;SDS011;64089;51.478;5.692;2023-02-11T00:52:29;17.42;;;8.05;;
42832;SDS011;64089;51.478;5.692;2023-02-11T00:54:55;18.17;;;7.72;;
42832;SDS011;64089;51.478;5.692;2023-02-11T00:57:21;16.42;;;8.02;;
42832;SDS011;64089;51.478;5.692;2023-02-11T00:59:46;18.67;;;7.78;;
42832;SDS011;64089;51.478;5.692;2023-02-11T01:02:12;11.98;;;6.40;;
42832;SDS011;64089;51.478;5.692;2023-02-11T01:04:37;20.33;;;8.05;;
42832;SDS011;64089;51.478;5.692;2023-02-11T01:07:03;16.05;;;7.50;;
42832;SDS011;64089;51.478;5.692;2023-02-11T01:09:28;21.33;;;8.63;;
42832;SDS011;64089;51.478;5.692;2023-02-11T01:11:54;19.80;;;7.32;;
42832;SDS011;64089;51.478;5.692;2023-02-11T01:14:20;20.77;;;6.82;;
42832;SDS011;64089;51.478;5.692;2023-02-11T01:16:45;22.13;;;8.50;;
42832;SDS011;64089;51.478;5.692;2023-02-11T01:19:11;15.52;;;6.85;;
42832;SDS011;64089;51.478;5.692;2023-02-11T01:21:36;22.05;;;6.88;;
42832;SDS011;64089;51.478;5.692;2023-02-11T01:24:02;18.48;;;7.35;;
42832;SDS011;64089;51.478;5.692;2023-02-11T01:26:28;25.40;;;7.28;;
42832;SDS011;64089;51.478;5.692;2023-02-11T01:28:53;21.10;;;7.30;;
42832;SDS011;64089;51.478;5.692;2023-02-11T01:31:22;18.08;;;7.20;;
42832;SDS011;64089;51.478;5.692;2023-02-11T01:33:47;18.80;;;6.97;;
42832;SDS011;64089;51.478;5.692;2023-02-11T01:36:13;22.13;;;7.30;;
42832;SDS011;64089;51.478;5.692;2023-02-11T01:38:38;16.67;;;6.82;;
42832;SDS011;64089;51.478;5.692;2023-02-11T01:41:06;12.73;;;7.00;;
42832;SDS011;64089;51.478;5.692;2023-02-11T01:43:35;17.77;;;7.25;;
42832;SDS011;64089;51.478;5.692;2023-02-11T01:46:05;19.77;;;6.80;;
42832;SDS011;64089;51.478;5.692;2023-02-11T01:48:42;19.77;;;6.88;;
42832;SDS011;64089;51.478;5.692;2023-02-11T01:51:12;20.30;;;7.22;;
42832;SDS011;64089;51.478;5.692;2023-02-11T01:53:47;18.70;;;7.45;;
42832;SDS011;64089;51.478;5.692;2023-02-11T01:56:34;14.45;;;6.40;;
42832;SDS011;64089;51.478;5.692;2023-02-11T01:59:23;10.05;;;6.07;;
42832;SDS011;64089;51.478;5.692;2023-02-11T02:01:57;11.70;;;5.60;;
42832;SDS011;64089;51.478;5.692;2023-02-11T02:04:30;19.98;;;6.80;;
42832;SDS011;64089;51.478;5.692;2023-02-11T02:07:04;14.52;;;6.97;;
42832;SDS011;64089;51.478;5.692;2023-02-11T02:09:35;16.13;;;7.63;;
42832;SDS011;64089;51.478;5.692;2023-02-11T02:12:05;18.77;;;5.97;;
42832;SDS011;64089;51.478;5.692;2023-02-11T02:14:31;16.45;;;5.93;;
42832;SDS011;64089;51.478;5.692;2023-02-11T02:16:57;18.40;;;6.88;;
42832;SDS011;64089;51.478;5.692;2023-02-11T02:36:17;20.80;;;6.50;;
42832;SDS011;64089;51.478;5.692;2023-02-11T02:38:49;10.93;;;6.07;;
42832;SDS011;64089;51.478;5.692;2023-02-11T02:41:27;13.52;;;5.82;;
42832;SDS011;64089;51.478;5.692;2023-02-11T02:43:55;13.98;;;6.53;;
42832;SDS011;64089;51.478;5.692;2023-02-11T02:46:22;20.80;;;5.93;;
42832;SDS011;64089;51.478;5.692;2023-02-11T02:48:58;14.20;;;5.30;;
42832;SDS011;64089;51.478;5.692;2023-02-11T02:51:26;17.98;;;6.80;;
42832;SDS011;64089;51.478;5.692;2023-02-11T02:54:10;11.32;;;5.90;;
42832;SDS011;64089;51.478;5.692;2023-02-11T03:02:54;15.15;;;5.75;;
42832;SDS011;64089;51.478;5.692;2023-02-11T03:05:48;20.67;;;6.30;;
42832;SDS011;64089;51.478;5.692;2023-02-11T03:08:24;12.63;;;4.60;;
42832;SDS011;64089;51.478;5.692;2023-02-11T03:10:56;13.07;;;5.22;;
42832;SDS011;64089;51.478;5.692;2023-02-11T03:13:26;14.70;;;5.30;;
42832;SDS011;64089;51.478;5.692;2023-02-11T03:15:57;14.10;;;5.30;;
42832;SDS011;64089;51.478;5.692;2023-02-11T03:18:28;17.02;;;7.07;;
42832;SDS011;64089;51.478;5.692;2023-02-11T03:20:57;17.52;;;5.45;;
42832;SDS011;64089;51.478;5.692;2023-02-11T03:37:21;19.25;;;5.60;;
42832;SDS011;64089;51.478;5.692;2023-02-11T03:40:12;18.70;;;5.38;;
42832;SDS011;64089;51.478;5.692;2023-02-11T03:43:16;21.33;;;6.13;;
42832;SDS011;64089;51.478;5.692;2023-02-11T03:45:38;19.80;;;4.93;;
42832;SDS011;64089;51.478;5.692;2023-02-11T03:48:05;14.05;;;4.85;;
42832;SDS011;64089;51.478;5.692;2023-02-11T03:50:36;11.20;;;5.60;;
42832;SDS011;64089;51.478;5.692;2023-02-11T03:53:04;30.83;;;6.40;;
42832;SDS011;64089;51.478;5.692;2023-02-11T03:55:32;17.27;;;5.35;;
42832;SDS011;64089;51.478;5.692;2023-02-11T03:58:01;25.90;;;5.85;;
42832;SDS011;64089;51.478;5.692;2023-02-11T04:00:30;13.85;;;5.63;;
42832;SDS011;64089;51.478;5.692;2023-02-11T04:02:56;13.45;;;6.07;;
42832;SDS011;64089;51.478;5.692;2023-02-11T04:05:22;14.02;;;5.57;;
42832;SDS011;64089;51.478;5.692;2023-02-11T04:07:48;12.48;;;5.80;;
42832;SDS011;64089;51.478;5.692;2023-02-11T04:10:13;19.25;;;5.45;;
42832;SDS011;64089;51.478;5.692;2023-02-11T04:12:39;13.52;;;5.35;;
42832;SDS011;64089;51.478;5.692;2023-02-11T04:15:05;16.70;;;5.90;;
42832;SDS011;64089;51.478;5.692;2023-02-11T04:17:31;18.10;;;5.38;;
42832;SDS011;64089;51.478;5.692;2023-02-11T04:19:57;12.02;;;5.72;;
42832;SDS011;64089;51.478;5.692;2023-02-11T04:22:22;13.70;;;6.32;;
42832;SDS011;64089;51.478;5.692;2023-02-11T04:24:48;14.27;;;5.13;;
42832;SDS011;64089;51.478;5.692;2023-02-11T04:27:13;12.65;;;6.03;;
42832;SDS011;64089;51.478;5.692;2023-02-11T04:29:39;23.48;;;6.93;;
42832;SDS011;64089;51.478;5.692;2023-02-11T04:32:08;23.70;;;6.57;;
42832;SDS011;64089;51.478;5.692;2023-02-11T04:34:35;11.98;;;5.25;;
42832;SDS011;64089;51.478;5.692;2023-02-11T04:37:00;14.98;;;5.90;;
42832;SDS011;64089;51.478;5.692;2023-02-11T04:39:26;21.25;;;7.13;;
42832;SDS011;64089;51.478;5.692;2023-02-11T04:41:51;16.38;;;6.05;;
42832;SDS011;64089;51.478;5.692;2023-02-11T04:44:17;21.73;;;5.70;;
42832;SDS011;64089;51.478;5.692;2023-02-11T04:46:43;20.38;;;5.90;;
42832;SDS011;64089;51.478;5.692;2023-02-11T04:49:10;19.27;;;6.10;;
42832;SDS011;64089;51.478;5.692;2023-02-11T04:51:37;24.30;;;6.03;;
42832;SDS011;64089;51.478;5.692;2023-02-11T04:54:03;18.50;;;6.00;;
42832;SDS011;64089;51.478;5.692;2023-02-11T04:56:29;24.17;;;6.90;;
42832;SDS011;64089;51.478;5.692;2023-02-11T04:58:54;22.40;;;5.90;;
42832;SDS011;64089;51.478;5.692;2023-02-11T05:01:20;12.40;;;5.80;;
42832;SDS011;64089;51.478;5.692;2023-02-11T05:03:46;14.00;;;5.50;;
42832;SDS011;64089;51.478;5.692;2023-02-11T05:06:11;18.27;;;6.47;;
42832;SDS011;64089;51.478;5.692;2023-02-11T05:08:37;21.77;;;6.20;;
42832;SDS011;64089;51.478;5.692;2023-02-11T05:11:03;18.27;;;6.82;;
42832;SDS011;64089;51.478;5.692;2023-02-11T05:13:29;17.83;;;7.32;;
42832;SDS011;64089;51.478;5.692;2023-02-11T05:15:55;19.27;;;6.45;;
42832;SDS011;64089;51.478;5.692;2023-02-11T05:18:21;15.80;;;5.80;;
42832;SDS011;64089;51.478;5.692;2023-02-11T05:20:47;24.48;;;7.00;;
42832;SDS011;64089;51.478;5.692;2023-02-11T05:23:12;20.70;;;6.93;;
42832;SDS011;64089;51.478;5.692;2023-02-11T05:25:38;16.15;;;6.38;;
42832;SDS011;64089;51.478;5.692;2023-02-11T05:28:04;18.20;;;6.05;;
42832;SDS011;64089;51.478;5.692;2023-02-11T05:30:30;16.77;;;5.85;;
42832;SDS011;64089;51.478;5.692;2023-02-11T05:32:56;20.27;;;6.25;;
42832;SDS011;64089;51.478;5.692;2023-02-11T05:35:21;18.83;;;6.13;;
42832;SDS011;64089;51.478;5.692;2023-02-11T05:37:47;19.63;;;6.53;;
42832;SDS011;64089;51.478;5.692;2023-02-11T05:40:13;18.20;;;7.32;;
42832;SDS011;64089;51.478;5.692;2023-02-11T05:42:38;19.25;;;7.00;;
42832;SDS011;64089;51.478;5.692;2023-02-11T05:45:04;21.60;;;6.65;;
42832;SDS011;64089;51.478;5.692;2023-02-11T05:47:33;25.48;;;7.93;;
42832;SDS011;64089;51.478;5.692;2023-02-11T05:49:59;20.35;;;6.85;;
42832;SDS011;64089;51.478;5.692;2023-02-11T05:52:24;19.55;;;7.22;;
42832;SDS011;64089;51.478;5.692;2023-02-11T05:54:50;15.90;;;6.53;;
42832;SDS011;64089;51.478;5.692;2023-02-11T05:57:16;18.98;;;7.90;;
42832;SDS011;64089;51.478;5.692;2023-02-11T05:59:42;16.30;;;6.50;;
42832;SDS011;64089;51.478;5.692;2023-02-11T06:02:08;14.07;;;7.00;;
42832;SDS011;64089;51.478;5.692;2023-02-11T06:04:34;23.15;;;8.10;;
42832;SDS011;64089;51.478;5.692;2023-02-11T06:07:00;20.48;;;7.88;;
42832;SDS011;64089;51.478;5.692;2023-02-11T06:09:26;18.65;;;7.95;;
42832;SDS011;64089;51.478;5.692;2023-02-11T06:11:52;22.63;;;8.13;;
42832;SDS011;64089;51.478;5.692;2023-02-11T06:14:18;19.55;;;8.93;;
42832;SDS011;64089;51.478;5.692;2023-02-11T06:16:43;18.17;;;7.18;;
42832;SDS011;64089;51.478;5.692;2023-02-11T06:19:09;18.17;;;8.18;;
42832;SDS011;64089;51.478;5.692;2023-02-11T06:21:35;24.15;;;8.48;;
42832;SDS011;64089;51.478;5.692;2023-02-11T06:24:01;18.95;;;8.82;;
42832;SDS011;64089;51.478;5.692;2023-02-11T06:26:26;18.75;;;8.07;;
42832;SDS011;64089;51.478;5.692;2023-02-11T06:28:52;29.92;;;9.77;;
42832;SDS011;64089;51.478;5.692;2023-02-11T06:31:17;24.13;;;8.27;;
42832;SDS011;64089;51.478;5.692;2023-02-11T06:33:43;19.88;;;9.30;;
42832;SDS011;64089;51.478;5.692;2023-02-11T06:36:16;19.17;;;8.55;;
42832;SDS011;64089;51.478;5.692;2023-02-11T06:38:44;32.33;;;9.27;;
42832;SDS011;64089;51.478;5.692;2023-02-11T06:41:11;25.30;;;9.15;;
42832;SDS011;64089;51.478;5.692;2023-02-11T06:43:38;24.80;;;9.10;;
42832;SDS011;64089;51.478;5.692;2023-02-11T06:46:04;18.58;;;9.85;;
42832;SDS011;64089;51.478;5.692;2023-02-11T06:48:30;30.70;;;10.90;;
42832;SDS011;64089;51.478;5.692;2023-02-11T06:51:00;21.92;;;9.10;;
42832;SDS011;64089;51.478;5.692;2023-02-11T06:53:27;27.90;;;10.73;;
42832;SDS011;64089;51.478;5.692;2023-02-11T06:55:52;21.50;;;9.57;;
42832;SDS011;64089;51.478;5.692;2023-02-11T06:58:18;26.42;;;9.77;;
42832;SDS011;64089;51.478;5.692;2023-02-11T07:00:44;29.98;;;10.55;;
42832;SDS011;64089;51.478;5.692;2023-02-11T07:03:09;48.45;;;12.75;;
42832;SDS011;64089;51.478;5.692;2023-02-11T07:05:35;32.90;;;13.25;;
42832;SDS011;64089;51.478;5.692;2023-02-11T07:08:02;31.65;;;12.23;;
42832;SDS011;64089;51.478;5.692;2023-02-11T07:10:28;34.95;;;11.95;;
42832;SDS011;64089;51.478;5.692;2023-02-11T07:12:54;37.47;;;12.23;;
42832;SDS011;64089;51.478;5.692;2023-02-11T07:15:20;29.80;;;13.68;;
42832;SDS011;64089;51.478;5.692;2023-02-11T07:17:45;28.10;;;12.90;;
42832;SDS011;64089;51.478;5.692;2023-02-11T07:20:11;32.40;;;13.25;;
42832;SDS011;64089;51.478;5.692;2023-02-11T07:22:38;40.97;;;14.85;;
42832;SDS011;64089;51.478;5.692;2023-02-11T07:25:04;63.60;;;13.32;;
42832;SDS011;64089;51.478;5.692;2023-02-11T07:27:30;41.30;;;13.98;;
42832;SDS011;64089;51.478;5.692;2023-02-11T07:29:55;43.45;;;13.68;;
42832;SDS011;64089;51.478;5.692;2023-02-11T07:32:21;30.92;;;13.13;;
42832;SDS011;64089;51.478;5.692;2023-02-11T07:34:46;46.10;;;15.13;;
42832;SDS011;64089;51.478;5.692;2023-02-11T07:37:13;40.95;;;14.63;;
42832;SDS011;64089;51.478;5.692;2023-02-11T07:39:39;44.85;;;15.52;;
42832;SDS011;64089;51.478;5.692;2023-02-11T07:42:04;49.47;;;16.20;;
42832;SDS011;64089;51.478;5.692;2023-02-11T07:44:30;31.15;;;13.65;;
42832;SDS011;64089;51.478;5.692;2023-02-11T07:46:57;46.33;;;12.95;;
42832;SDS011;64089;51.478;5.692;2023-02-11T07:49:23;52.22;;;15.73;;
42832;SDS011;64089;51.478;5.692;2023-02-11T07:51:49;50.88;;;17.30;;
42832;SDS011;64089;51.478;5.692;2023-02-11T07:54:15;40.58;;;13.90;;
42832;SDS011;64089;51.478;5.692;2023-02-11T07:56:41;45.10;;;14.10;;
42832;SDS011;64089;51.478;5.692;2023-02-11T07:59:07;38.33;;;17.30;;
42832;SDS011;64089;51.478;5.692;2023-02-11T08:01:32;40.55;;;16.13;;
42832;SDS011;64089;51.478;5.692;2023-02-11T08:03:58;48.20;;;16.15;;
42832;SDS011;64089;51.478;5.692;2023-02-11T08:06:26;39.05;;;15.10;;
42832;SDS011;64089;51.478;5.692;2023-02-11T08:08:54;54.83;;;17.65;;
42832;SDS011;64089;51.478;5.692;2023-02-11T08:11:23;48.45;;;17.63;;
42832;SDS011;64089;51.478;5.692;2023-02-11T08:13:51;44.72;;;15.43;;
42832;SDS011;64089;51.478;5.692;2023-02-11T08:16:27;49.60;;;19.38;;
42832;SDS011;64089;51.478;5.692;2023-02-11T08:18:58;49.95;;;17.73;;
42832;SDS011;64089;51.478;5.692;2023-02-11T08:21:26;63.35;;;19.50;;
42832;SDS011;64089;51.478;5.692;2023-02-11T08:23:52;55.22;;;19.48;;
42832;SDS011;64089;51.478;5.692;2023-02-11T08:26:20;76.03;;;27.85;;
42832;SDS011;64089;51.478;5.692;2023-02-11T08:28:49;82.80;;;32.35;;
42832;SDS011;64089;51.478;5.692;2023-02-11T08:31:19;121.70;;;46.20;;
42832;SDS011;64089;51.478;5.692;2023-02-11T08:33:57;88.65;;;30.67;;
42832;SDS011;64089;51.478;5.692;2023-02-11T08:36:24;51.30;;;20.88;;
42832;SDS011;64089;51.478;5.692;2023-02-11T08:38:52;47.03;;;17.63;;
42832;SDS011;64089;51.478;5.692;2023-02-11T08:41:23;48.95;;;16.50;;
42832;SDS011;64089;51.478;5.692;2023-02-11T08:43:50;41.28;;;17.10;;
42832;SDS011;64089;51.478;5.692;2023-02-11T08:46:16;50.42;;;18.10;;
42832;SDS011;64089;51.478;5.692;2023-02-11T08:48:43;46.95;;;17.77;;
42832;SDS011;64089;51.478;5.692;2023-02-11T08:51:11;48.97;;;18.70;;
42832;SDS011;64089;51.478;5.692;2023-02-11T08:53:42;49.58;;;17.70;;
42832;SDS011;64089;51.478;5.692;2023-02-11T08:56:09;62.05;;;16.88;;
42832;SDS011;64089;51.478;5.692;2023-02-11T08:58:36;44.67;;;16.15;;
42832;SDS011;64089;51.478;5.692;2023-02-11T09:01:07;48.42;;;17.63;;
42832;SDS011;64089;51.478;5.692;2023-02-11T09:03:34;48.25;;;17.42;;
42832;SDS011;64089;51.478;5.692;2023-02-11T09:06:03;58.65;;;18.65;;
42832;SDS011;64089;51.478;5.692;2023-02-11T09:08:30;60.58;;;19.70;;
42832;SDS011;64089;51.478;5.692;2023-02-11T09:10:58;71.93;;;18.80;;
42832;SDS011;64089;51.478;5.692;2023-02-11T09:13:23;49.38;;;18.77;;
42832;SDS011;64089;51.478;5.692;2023-02-11T09:15:49;61.40;;;21.50;;
42832;SDS011;64089;51.478;5.692;2023-02-11T09:18:14;50.97;;;19.55;;
42832;SDS011;64089;51.478;5.692;2023-02-11T09:20:40;62.92;;;20.15;;
42832;SDS011;64089;51.478;5.692;2023-02-11T09:23:06;58.40;;;21.02;;
42832;SDS011;64089;51.478;5.692;2023-02-11T09:25:31;59.72;;;21.38;;
42832;SDS011;64089;51.478;5.692;2023-02-11T09:27:57;52.90;;;19.70;;
42832;SDS011;64089;51.478;5.692;2023-02-11T09:30:23;68.85;;;23.02;;
42832;SDS011;64089;51.478;5.692;2023-02-11T09:32:48;61.50;;;20.83;;
42832;SDS011;64089;51.478;5.692;2023-02-11T09:35:14;58.28;;;19.48;;
42832;SDS011;64089;51.478;5.692;2023-02-11T09:37:39;54.72;;;22.63;;
42832;SDS011;64089;51.478;5.692;2023-02-11T09:40:05;56.25;;;18.77;;
42832;SDS011;64089;51.478;5.692;2023-02-11T09:45:18;140.43;;;47.05;;
42832;SDS011;64089;51.478;5.692;2023-02-11T09:47:48;124.20;;;40.60;;
42832;SDS011;64089;51.478;5.692;2023-02-11T09:50:17;63.42;;;22.70;;
42832;SDS011;64089;51.478;5.692;2023-02-11T09:55:37;60.78;;;19.77;;
42832;SDS011;64089;51.478;5.692;2023-02-11T09:58:10;67.88;;;21.48;;
42832;SDS011;64089;51.478;5.692;2023-02-11T10:00:39;52.13;;;19.05;;
42832;SDS011;64089;51.478;5.692;2023-02-11T10:22:58;64.53;;;21.52;;
42832;SDS011;64089;51.478;5.692;2023-02-11T10:25:35;51.00;;;20.15;;
42832;SDS011;64089;51.478;5.692;2023-02-11T10:28:14;63.13;;;20.85;;
42832;SDS011;64089;51.478;5.692;2023-02-11T10:30:42;56.80;;;21.73;;
42832;SDS011;64089;51.478;5.692;2023-02-11T10:33:19;49.08;;;18.33;;
42832;SDS011;64089;51.478;5.692;2023-02-11T10:35:49;63.65;;;20.30;;
42832;SDS011;64089;51.478;5.692;2023-02-11T10:38:15;58.63;;;21.85;;
42832;SDS011;64089;51.478;5.692;2023-02-11T10:40:41;63.78;;;21.60;;
42832;SDS011;64089;51.478;5.692;2023-02-11T10:43:09;49.17;;;18.75;;
42832;SDS011;64089;51.478;5.692;2023-02-11T10:45:41;48.90;;;18.60;;
42832;SDS011;64089;51.478;5.692;2023-02-11T10:51:29;63.15;;;21.50;;
42832;SDS011;64089;51.478;5.692;2023-02-11T10:56:37;62.38;;;22.02;;
42832;SDS011;64089;51.478;5.692;2023-02-11T10:59:06;65.78;;;21.17;;
42832;SDS011;64089;51.478;5.692;2023-02-11T11:02:15;61.65;;;20.88;;
42832;SDS011;64089;51.478;5.692;2023-02-11T11:04:48;61.53;;;21.98;;
42832;SDS011;64089;51.478;5.692;2023-02-11T11:07:23;60.88;;;22.50;;
42832;SDS011;64089;51.478;5.692;2023-02-11T11:10:21;73.18;;;21.20;;
42832;SDS011;64089;51.478;5.692;2023-02-11T11:13:00;67.63;;;21.48;;
42832;SDS011;64089;51.478;5.692;2023-02-11T11:15:26;68.15;;;20.63;;
42832;SDS011;64089;51.478;5.692;2023-02-11T11:18:13;56.20;;;19.63;;
42832;SDS011;64089;51.478;5.692;2023-02-11T11:20:53;64.13;;;21.15;;
42832;SDS011;64089;51.478;5.692;2023-02-11T11:23:24;66.05;;;21.42;;
42832;SDS011;64089;51.478;5.692;2023-02-11T11:26:08;67.82;;;21.35;;
42832;SDS011;64089;51.478;5.692;2023-02-11T11:31:21;55.90;;;21.15;;
42832;SDS011;64089;51.478;5.692;2023-02-11T11:33:51;59.88;;;23.67;;
42832;SDS011;64089;51.478;5.692;2023-02-11T11:36:24;59.47;;;23.02;;
42832;SDS011;64089;51.478;5.692;2023-02-11T11:38:59;52.17;;;21.52;;
42832;SDS011;64089;51.478;5.692;2023-02-11T11:41:28;61.05;;;22.63;;
42832;SDS011;64089;51.478;5.692;2023-02-11T11:43:57;54.13;;;20.58;;
42832;SDS011;64089;51.478;5.692;2023-02-11T11:46:25;57.30;;;21.58;;
42832;SDS011;64089;51.478;5.692;2023-02-11T11:49:05;56.97;;;22.17;;
42832;SDS011;64089;51.478;5.692;2023-02-11T11:51:56;65.35;;;23.45;;
42832;SDS011;64089;51.478;5.692;2023-02-11T11:54:44;69.53;;;23.75;;
42832;SDS011;64089;51.478;5.692;2023-02-11T11:57:17;54.47;;;19.83;;
42832;SDS011;64089;51.478;5.692;2023-02-11T11:59:45;61.45;;;22.95;;
42832;SDS011;64089;51.478;5.692;2023-02-11T12:02:21;54.90;;;20.50;;
42832;SDS011;64089;51.478;5.692;2023-02-11T12:16:08;51.75;;;22.38;;
42832;SDS011;64089;51.478;5.692;2023-02-11T12:21:49;65.35;;;22.02;;
42832;SDS011;64089;51.478;5.692;2023-02-11T12:35:52;52.90;;;20.05;;
42832;SDS011;64089;51.478;5.692;2023-02-11T12:44:39;42.58;;;18.50;;
42832;SDS011;64089;51.478;5.692;2023-02-11T12:55:57;51.38;;;19.08;;
42832;SDS011;64089;51.478;5.692;2023-02-11T12:58:38;53.13;;;17.88;;
42832;SDS011;64089;51.478;5.692;2023-02-11T13:01:11;55.05;;;19.30;;
42832;SDS011;64089;51.478;5.692;2023-02-11T13:03:46;45.53;;;19.52;;
42832;SDS011;64089;51.478;5.692;2023-02-11T13:06:19;48.67;;;17.63;;
42832;SDS011;64089;51.478;5.692;2023-02-11T13:08:56;45.17;;;18.05;;
42832;SDS011;64089;51.478;5.692;2023-02-11T13:11:27;52.05;;;17.85;;
42832;SDS011;64089;51.478;5.692;2023-02-11T13:14:08;55.30;;;18.35;;
42832;SDS011;64089;51.478;5.692;2023-02-11T13:16:41;46.72;;;19.23;;
42832;SDS011;64089;51.478;5.692;2023-02-11T13:21:45;55.17;;;20.27;;
42832;SDS011;64089;51.478;5.692;2023-02-11T13:27:23;47.70;;;19.30;;
42832;SDS011;64089;51.478;5.692;2023-02-11T13:30:27;56.13;;;20.30;;
42832;SDS011;64089;51.478;5.692;2023-02-11T13:35:40;52.40;;;19.83;;
42832;SDS011;64089;51.478;5.692;2023-02-11T13:38:34;59.58;;;20.60;;
42832;SDS011;64089;51.478;5.692;2023-02-11T13:46:50;58.95;;;21.95;;
42832;SDS011;64089;51.478;5.692;2023-02-11T13:49:37;46.28;;;19.98;;
42832;SDS011;64089;51.478;5.692;2023-02-11T13:52:14;48.88;;;20.30;;
42832;SDS011;64089;51.478;5.692;2023-02-11T13:55:02;50.20;;;20.00;;
42832;SDS011;64089;51.478;5.692;2023-02-11T13:57:34;62.22;;;21.20;;
42832;SDS011;64089;51.478;5.692;2023-02-11T14:00:06;55.22;;;21.85;;
42832;SDS011;64089;51.478;5.692;2023-02-11T14:02:34;49.35;;;19.08;;
42832;SDS011;64089;51.478;5.692;2023-02-11T14:13:35;51.60;;;22.02;;
42832;SDS011;64089;51.478;5.692;2023-02-11T14:16:14;69.70;;;21.80;;
42832;SDS011;64089;51.478;5.692;2023-02-11T14:21:15;55.72;;;22.88;;
42832;SDS011;64089;51.478;5.692;2023-02-11T14:23:45;55.92;;;22.60;;
42832;SDS011;64089;51.478;5.692;2023-02-11T14:42:25;60.45;;;22.05;;
42832;SDS011;64089;51.478;5.692;2023-02-11T14:44:54;52.50;;;20.75;;
42832;SDS011;64089;51.478;5.692;2023-02-11T14:47:24;65.22;;;20.13;;
42832;SDS011;64089;51.478;5.692;2023-02-11T14:50:10;52.95;;;20.70;;
42832;SDS011;64089;51.478;5.692;2023-02-11T14:52:41;60.40;;;21.98;;
42832;SDS011;64089;51.478;5.692;2023-02-11T14:58:03;53.78;;;20.38;;
42832;SDS011;64089;51.478;5.692;2023-02-11T15:00:51;56.63;;;21.10;;
42832;SDS011;64089;51.478;5.692;2023-02-11T15:03:28;58.95;;;23.13;;
42832;SDS011;64089;51.478;5.692;2023-02-11T15:06:17;59.28;;;20.05;;
42832;SDS011;64089;51.478;5.692;2023-02-11T15:09:12;56.30;;;19.70;;
42832;SDS011;64089;51.478;5.692;2023-02-11T15:11:53;55.90;;;21.52;;
42832;SDS011;64089;51.478;5.692;2023-02-11T15:14:22;50.65;;;20.90;;
42832;SDS011;64089;51.478;5.692;2023-02-11T15:16:57;49.60;;;21.40;;
42832;SDS011;64089;51.478;5.692;2023-02-11T15:19:28;47.42;;;21.27;;
42832;SDS011;64089;51.478;5.692;2023-02-11T15:22:45;46.63;;;21.27;;
42832;SDS011;64089;51.478;5.692;2023-02-11T15:24:56;52.92;;;18.38;;
42832;SDS011;64089;51.478;5.692;2023-02-11T15:27:22;47.45;;;19.55;;
42832;SDS011;64089;51.478;5.692;2023-02-11T15:29:49;56.55;;;20.13;;
42832;SDS011;64089;51.478;5.692;2023-02-11T15:32:20;48.50;;;20.60;;
42832;SDS011;64089;51.478;5.692;2023-02-11T15:34:48;70.15;;;30.58;;
42832;SDS011;64089;51.478;5.692;2023-02-11T15:37:23;80.30;;;30.42;;
42832;SDS011;64089;51.478;5.692;2023-02-11T15:39:53;88.82;;;37.58;;
42832;SDS011;64089;51.478;5.692;2023-02-11T15:42:21;68.07;;;25.88;;
42832;SDS011;64089;51.478;5.692;2023-02-11T15:45:08;56.63;;;21.17;;
42832;SDS011;64089;51.478;5.692;2023-02-11T15:47:55;45.63;;;20.38;;
42832;SDS011;64089;51.478;5.692;2023-02-11T15:50:36;49.83;;;20.48;;
42832;SDS011;64089;51.478;5.692;2023-02-11T15:53:51;50.58;;;21.52;;
42832;SDS011;64089;51.478;5.692;2023-02-11T15:58:36;51.50;;;21.05;;
42832;SDS011;64089;51.478;5.692;2023-02-11T16:01:06;50.85;;;20.95;;
42832;SDS011;64089;51.478;5.692;2023-02-11T16:03:34;51.45;;;23.08;;
42832;SDS011;64089;51.478;5.692;2023-02-11T16:08:41;49.42;;;21.50;;
42832;SDS011;64089;51.478;5.692;2023-02-11T16:11:28;50.90;;;20.80;;
42832;SDS011;64089;51.478;5.692;2023-02-11T16:13:55;46.22;;;20.73;;
42832;SDS011;64089;51.478;5.692;2023-02-11T16:16:23;52.05;;;23.38;;
42832;SDS011;64089;51.478;5.692;2023-02-11T16:18:56;44.25;;;20.40;;
42832;SDS011;64089;51.478;5.692;2023-02-11T16:21:32;55.05;;;22.00;;
42832;SDS011;64089;51.478;5.692;2023-02-11T16:24:03;63.83;;;25.33;;
42832;SDS011;64089;51.478;5.692;2023-02-11T16:26:35;63.00;;;24.73;;
42832;SDS011;64089;51.478;5.692;2023-02-11T16:29:12;52.45;;;23.05;;
42832;SDS011;64089;51.478;5.692;2023-02-11T16:31:41;69.25;;;26.13;;
42832;SDS011;64089;51.478;5.692;2023-02-11T16:34:26;50.92;;;21.63;;
42832;SDS011;64089;51.478;5.692;2023-02-11T16:36:52;50.25;;;20.30;;
42832;SDS011;64089;51.478;5.692;2023-02-11T16:39:18;57.00;;;21.05;;
42832;SDS011;64089;51.478;5.692;2023-02-11T16:41:47;50.00;;;20.83;;
42832;SDS011;64089;51.478;5.692;2023-02-11T16:44:16;42.28;;;20.90;;
42832;SDS011;64089;51.478;5.692;2023-02-11T16:46:42;48.90;;;20.33;;
42832;SDS011;64089;51.478;5.692;2023-02-11T16:49:14;46.85;;;19.65;;
42832;SDS011;64089;51.478;5.692;2023-02-11T16:51:47;41.55;;;19.45;;
42832;SDS011;64089;51.478;5.692;2023-02-11T16:54:14;42.67;;;18.38;;
42832;SDS011;64089;51.478;5.692;2023-02-11T16:56:41;48.65;;;19.25;;
42832;SDS011;64089;51.478;5.692;2023-02-11T16:59:07;36.20;;;17.58;;
42832;SDS011;64089;51.478;5.692;2023-02-11T17:01:33;45.85;;;18.45;;
42832;SDS011;64089;51.478;5.692;2023-02-11T17:03:59;42.05;;;16.85;;
42832;SDS011;64089;51.478;5.692;2023-02-11T17:06:26;48.17;;;19.27;;
42832;SDS011;64089;51.478;5.692;2023-02-11T17:08:52;40.03;;;17.73;;
42832;SDS011;64089;51.478;5.692;2023-02-11T17:11:17;43.20;;;18.65;;
42832;SDS011;64089;51.478;5.692;2023-02-11T17:13:44;40.17;;;19.00;;
42832;SDS011;64089;51.478;5.692;2023-02-11T17:16:31;40.10;;;17.98;;
42832;SDS011;64089;51.478;5.692;2023-02-11T17:18:56;45.60;;;18.85;;
42832;SDS011;64089;51.478;5.692;2023-02-11T17:21:22;52.28;;;20.85;;
42832;SDS011;64089;51.478;5.692;2023-02-11T17:23:49;49.45;;;20.13;;